x

West Dixon Entrance (46205) Wave Buoy

2:00pm - Tue 26th Jul 2016 All times are PDT. -7 hours from GMT.

  • Sig Wave height 4.9ft
  • Peak Period 7s
  • Wind
    11mph
  • Sea Temp 58°f
  • Air Temp 58°f
  • Sea Pressure 1021.1mb
  • West Dixon Entrance
  • West Dixon Entrance

More Historic Weather Station data

Upgrade to MSW Pro to gain access to the past 30 days of data for over 8000 Wavebouys and Weather Stations around the globe.

Join Pro

Comparision Forecast

View Surf forecast
   
Tue 07/26 2:00pm 5ft 7s 11
mph
1021.1mb 58f 58f
1:00pm 5ft 7s 11 13 mph 1020.8mb 58f 58f
12:00pm 5ft 7s 11 13 mph 1020.5mb 58f 58f
11:00am 4.5ft 6s 11 13 mph 1019.9mb 58f 58f
10:00am 5ft 7s 13 16 mph 1019.6mb 58f 58f
9:00am 4.5ft 6s 16 20 mph 1019.4mb 58f 58f
8:00am 4.5ft 6s 18 20 mph 1019.1mb 58f 57f
7:00am 4.5ft 8s 18 20 mph 1018.8mb 58f 58f
6:00am 4.5ft 6s 18 20 mph 1018.7mb 58f 57f
5:00am 4.5ft 5s 18 20 mph 1018.9mb 57f 58f
4:00am 4.5ft 6s 18 22 mph 1018.9mb 57f 58f
3:00am 5ft 5s 18 22 mph 1019mb 57f 58f
2:00am 5ft 5s 18 22 mph 1019.2mb 58f 58f
1:00am 5ft 15s 18 22 mph 1019.2mb 58f 57f
12:00am 5ft 8s 18 20 mph 1019.4mb 58f 57f
Mon 07/25 11:00pm 5ft 9s 18 20 mph 1019.4mb 58f 58f
10:00pm 5ft 9s 16 20 mph 1019.6mb 58f 57f
9:00pm 5ft 9s 16 18 mph 1019.5mb 58f 57f
8:00pm 4.5ft 9s 18 22 mph 1019.3mb 58f 57f
7:00pm 4.5ft 10s 18 22 mph 1019.3mb 58f 57f
6:00pm 4.5ft 9s 16 20 mph 1019.6mb 58f 58f
5:00pm 4.5ft 10s 18 22 mph 1019.7mb 57f 58f
4:00pm 4.5ft 10s 18 22 mph 1020mb 57f 58f
3:00pm 5ft 10s 16 18 mph 1020.2mb 58f 58f
2:00pm 5ft 10s 18 22 mph 1020.2mb 58f 58f
1:00pm 5ft 9s 16 20 mph 1020.3mb 58f 58f
12:00pm 5.5ft 9s 16 20 mph 1020.2mb 58f 58f
11:00am 5.5ft 9s 13 18 mph 1020.3mb 58f 57f
10:00am 6ft 10s 13 16 mph 1020.2mb 57f 57f
9:00am 6ft 10s 13 16 mph 1020.1mb 57f 57f
8:00am 6ft 10s 9 11 mph 1020mb 57f 57f
7:00am 5.5ft 10s 9
mph
1019.9mb 57f 57f
6:00am 5.5ft 10s 7 9 mph 1020mb 57f 56f
5:00am 5.5ft 10s 13
mph
1020.2mb 57f 55f
4:00am 6ft 10s 13 16 mph 1020.2mb 57f 56f
3:00am 6ft 10s 9
mph
1020.3mb 57f 56f
2:00am 6.5ft 10s 11 13 mph 1020.5mb 57f 56f
1:00am 7ft 9s 16 20 mph 1020.5mb 57f 56f
12:00am 8ft 9s 9 11 mph 1020.6mb 57f 57f
Sun 07/24 11:00pm 7.5ft 10s 11 13 mph 1020.6mb 57f 56f
10:00pm 7.5ft 10s 4 11 mph 1020.5mb 58f 56f
9:00pm 8ft 10s 7 9 mph 1020.2mb 58f 56f
8:00pm 8ft 10s 13 16 mph 1020.1mb 58f 56f
7:00pm 8ft 11s 4 13 mph 1020.1mb 58f 57f
6:00pm 8ft 11s 9 11 mph 1020.2mb 58f 56f
5:00pm 7.5ft 10s 9 11 mph 1020.2mb 58f 57f
4:00pm 7.5ft 10s 2 4 mph 1020.1mb 57f 56f
3:00pm 9ft 11s 7 11 mph 1019.8mb 57f 56f
2:00pm 10.5ft 11s 9 13 mph 1019.6mb 57f 58f
1:00pm 10.5ft 11s 13 16 mph 1019.3mb 57f 57f
12:00pm 10ft 10s 13 18 mph 1019.1mb 57f 57f
11:00am 10ft 11s 13 16 mph 1018.6mb 57f 57f
10:00am 10ft 11s 13 18 mph 1018.2mb 57f 57f
9:00am 10ft 11s 16 18 mph 1017.7mb 57f 57f
8:00am 9ft 10s 13 16 mph 1017mb 57f 57f
7:00am 8.5ft 9s 13 20 mph 1016.7mb 57f 56f
6:00am 9ft 10s 13 18 mph 1016.2mb 57f 56f
5:00am 7.5ft 10s 16 22 mph 1015.8mb 57f 57f
4:00am 7ft 10s 18 20 mph 1015.7mb 57f 57f
3:00am 7ft 10s 16 18 mph 1015.7mb 57f 57f
2:00am 8.5ft 9s 16 20 mph 1015.7mb 57f 57f
1:00am 8ft 8s 16 20 mph 1015.8mb 57f 57f
12:00am 8ft 8s 18 22 mph 1015.6mb 57f 58f
Sat 07/23 11:00pm 8.5ft 9s 18 22 mph 1015.5mb 57f 58f
10:00pm 8.5ft 8s 16 18 mph 1015.1mb 57f 58f
9:00pm 8ft 8s 18 22 mph 1014.9mb 57f 58f
8:00pm 7ft 8s 13 16 mph 1014.9mb 57f 58f
7:00pm 6.5ft 8s 16 18 mph 1014.5mb 57f 58f
6:00pm 6.5ft 8s 13 18 mph 1014.3mb 57f 58f
5:00pm 6.5ft 7s 16 18 mph 1014.1mb 57f 58f
4:00pm 6ft 8s 18 20 mph 1014mb 57f 58f
3:00pm 6ft 8s 16 18 mph 1013.7mb 57f 58f
2:00pm 6ft 7s 18 22 mph 1013.3mb 57f 58f
1:00pm 6ft 7s 18 22 mph 1013.1mb 57f 57f
12:00pm 6ft 6s 20 27 mph 1013.1mb 57f 58f
11:00am 6ft 6s 18 22 mph 1012.7mb 57f 57f
10:00am 6.5ft 7s 13 18 mph 1012.7mb 57f 57f
9:00am 6ft 6s 20 25 mph 1012.6mb 57f 57f
8:00am 5.5ft 5s 20 25 mph 1012.2mb 57f 57f
7:00am 5.5ft 5s 22 27 mph 1011.9mb 57f 57f
6:00am 5ft 5s 22 27 mph 1012.2mb 57f 57f
5:00am 4.5ft 15s 22 27 mph 1012.5mb 57f 57f
4:00am 4.5ft 15s 20 25 mph 1013.1mb 58f 57f
3:00am 4.5ft 5s 20 25 mph 1013.5mb 58f 57f
2:00am 4.5ft 5s 18 22 mph 1014.2mb 58f 57f
1:00am 4.5ft 5s 18 22 mph 1014.6mb 57f 57f
12:00am 5ft 5s 18 22 mph 1014.9mb 57f 57f
Fri 07/22 11:00pm 5ft 5s 18 22 mph 1015mb 57f 57f